createdAt,value
2019-04-03T12:17:52.847Z,20.88
2019-04-03T12:18:57.456Z,20.88
2019-04-03T12:19:57.191Z,20.88
2019-04-03T12:20:57.190Z,20.88
2019-04-03T12:21:57.209Z,20.88
2019-04-03T12:22:57.468Z,20.90
2019-04-03T12:23:58.234Z,20.88
2019-04-03T12:24:57.499Z,20.90
2019-04-03T12:25:57.142Z,20.90
2019-04-03T12:26:57.142Z,20.90
2019-04-03T12:27:57.121Z,20.90
2019-04-03T12:28:57.492Z,20.91
2019-04-03T12:29:57.102Z,20.91
2019-04-03T12:30:57.134Z,20.91
2019-04-03T12:31:57.072Z,20.88
2019-04-03T12:32:57.043Z,20.87
2019-04-03T12:34:03.387Z,20.85
2019-04-03T12:34:58.968Z,20.83
2019-04-03T12:35:56.972Z,20.81
2019-04-03T12:36:57.030Z,20.82
2019-04-03T12:37:56.942Z,20.81
2019-04-03T12:38:57.295Z,20.79
2019-04-03T12:39:58.222Z,20.78
2019-04-03T12:40:56.882Z,20.78
2019-04-03T12:41:57.277Z,20.75
2019-04-03T12:42:56.834Z,20.73
2019-04-03T12:43:57.043Z,20.73
2019-04-03T12:44:56.784Z,20.73
2019-04-03T12:45:58.192Z,20.72
2019-04-03T12:46:58.093Z,20.71
2019-04-03T12:47:56.722Z,20.72
2019-04-03T12:48:56.704Z,20.71
2019-04-03T12:49:56.712Z,20.71
2019-04-03T12:50:56.952Z,20.69
2019-04-03T12:51:56.785Z,20.71
2019-04-03T12:52:57.122Z,20.71
2019-04-03T12:53:56.592Z,20.71
2019-04-03T12:54:56.624Z,20.72
2019-04-03T12:55:57.877Z,20.72
2019-04-03T12:56:56.524Z,20.73
2019-04-03T12:57:56.506Z,20.73
2019-04-03T12:58:56.506Z,20.73
2019-04-03T12:59:56.712Z,20.73
2019-04-03T13:00:56.435Z,20.73
2019-04-03T13:01:56.425Z,20.73
2019-04-03T13:02:56.662Z,20.75
2019-04-03T13:03:57.321Z,20.76
2019-04-03T13:04:56.405Z,20.76
2019-04-03T13:05:56.346Z,20.76
2019-04-03T13:06:56.706Z,20.78
2019-04-03T13:07:59.147Z,20.78
2019-04-03T13:08:56.298Z,20.79
2019-04-03T13:09:56.297Z,20.76
2019-04-03T13:10:57.085Z,20.78
2019-04-03T13:11:56.265Z,20.78
2019-04-03T13:12:56.742Z,20.79
2019-04-03T13:13:57.286Z,20.79
2019-04-03T13:14:56.177Z,20.79
2019-04-03T13:15:56.226Z,20.79
2019-04-03T13:16:56.236Z,20.79
2019-04-03T13:17:56.602Z,20.81
2019-04-03T13:18:56.309Z,20.79
2019-04-03T13:19:57.251Z,20.79
2019-04-03T13:51:53.932Z,20.88
2019-04-03T13:52:53.344Z,20.88
2019-04-03T14:34:51.254Z,21.05
2019-04-03T14:35:54.313Z,21.03
2019-04-03T14:38:13.319Z,21.00
2019-04-03T14:39:13.866Z,21.01
2019-04-03T14:40:13.633Z,21.01
2019-04-03T14:41:13.243Z,21.03
2019-04-03T14:42:13.100Z,21.01
2019-04-03T14:43:13.082Z,21.03
2019-04-03T14:44:07.576Z,21.03
2019-04-03T14:45:05.699Z,21.03
2019-04-03T14:46:05.524Z,21.01
2019-04-03T14:47:05.733Z,21.03
2019-04-03T14:48:05.521Z,21.03
2019-04-03T14:49:05.483Z,21.05
2019-04-03T14:50:06.469Z,21.03
2019-04-03T14:51:07.179Z,21.03
2019-04-03T16:52:41.164Z,21.13
2019-04-03T16:53:52.902Z,21.15
2019-04-03T16:54:53.109Z,21.12
2019-04-03T16:55:52.854Z,21.15
2019-04-03T16:56:53.112Z,21.18
2019-04-03T16:57:54.312Z,21.18
2019-04-03T16:58:52.822Z,21.18
2019-04-03T16:59:53.050Z,21.18
2019-04-03T17:00:52.788Z,21.16
2019-04-03T17:01:52.782Z,21.16
2019-04-03T17:02:53.954Z,21.15
2019-04-03T17:03:52.751Z,21.13
2019-04-03T17:04:52.963Z,21.12
2019-04-03T17:05:53.159Z,21.13
2019-04-03T17:06:52.732Z,21.12
2019-04-03T17:07:54.334Z,21.09
2019-04-03T17:08:53.067Z,21.09
2019-04-03T17:09:52.695Z,21.09
2019-04-03T17:10:52.681Z,21.09
2019-04-03T17:11:52.687Z,21.08
2019-04-03T17:12:54.761Z,21.11
2019-04-03T17:13:52.900Z,21.09
2019-04-03T17:14:52.915Z,21.09
2019-04-03T17:15:52.677Z,21.11
2019-04-03T17:16:52.783Z,21.11
2019-04-03T17:17:52.612Z,21.12
2019-04-03T17:18:52.607Z,21.11
2019-04-03T17:19:52.602Z,21.09
2019-04-03T17:20:53.217Z,21.11
2019-04-03T17:21:52.708Z,21.12
2019-04-03T17:22:52.565Z,21.11
2019-04-03T17:23:52.543Z,21.09
2019-04-03T17:24:55.742Z,21.11
2019-04-03T17:25:52.523Z,21.09
2019-04-03T17:26:57.368Z,21.09
2019-04-03T17:27:57.481Z,21.08
2019-04-03T17:29:02.511Z,21.08
2019-04-03T17:29:53.484Z,21.06
2019-04-03T17:30:52.490Z,21.06
2019-04-03T17:31:52.891Z,21.08
2019-04-03T17:32:52.834Z,21.06
2019-04-03T17:33:52.441Z,21.06
2019-04-03T17:34:52.435Z,21.05
2019-04-03T17:35:52.405Z,21.05
2019-04-03T17:36:53.926Z,21.05
2019-04-03T17:37:52.385Z,21.03
2019-04-03T17:38:52.820Z,21.01
2019-04-03T17:39:52.559Z,21.01
2019-04-03T17:40:52.356Z,21.01
2019-04-03T17:41:52.346Z,21.01
2019-04-03T17:42:52.346Z,21.00
2019-04-03T17:43:52.326Z,21.00
2019-04-03T17:44:52.345Z,21.00
2019-04-03T17:45:52.307Z,20.98
2019-04-03T17:46:52.286Z,20.98
2019-04-03T17:47:53.889Z,20.98
2019-04-03T17:48:53.731Z,20.96
2019-04-03T17:49:52.266Z,20.98
2019-04-03T17:50:52.247Z,20.97
2019-04-03T17:51:52.248Z,20.97
2019-04-03T17:52:52.227Z,20.97
2019-04-03T17:53:52.218Z,20.97
2019-04-03T17:54:52.216Z,20.97
2019-04-03T17:55:52.195Z,20.96
2019-04-03T17:56:52.198Z,20.96
2019-04-03T17:57:52.190Z,20.96
2019-04-03T17:58:52.158Z,20.96
2019-04-03T17:59:52.158Z,20.96
2019-04-03T18:00:52.656Z,20.96
2019-04-03T18:01:52.500Z,20.96
2019-04-03T18:02:52.118Z,20.97
2019-04-03T18:03:52.108Z,20.94
2019-04-03T18:04:52.098Z,20.94
2019-04-03T18:05:52.087Z,20.94
2019-04-03T18:06:52.079Z,20.93
2019-04-03T18:07:52.079Z,20.93
2019-04-03T18:08:52.049Z,20.93
2019-04-03T18:09:52.059Z,20.91
2019-04-03T18:10:52.029Z,20.90
2019-04-03T18:11:52.022Z,20.90
2019-04-03T18:12:52.345Z,20.88
2019-04-03T18:13:52.980Z,20.90
2019-04-03T18:14:51.991Z,20.88
2019-04-03T18:15:51.995Z,20.88
2019-04-03T18:16:51.980Z,20.88
2019-04-03T18:17:51.951Z,20.88
2019-04-03T18:18:51.941Z,20.87
2019-04-03T18:19:51.931Z,20.87
2019-04-03T18:20:51.932Z,20.85
2019-04-03T18:21:51.915Z,20.85
2019-04-03T18:22:51.901Z,20.85
2019-04-03T18:23:53.392Z,20.83
2019-04-03T18:24:53.876Z,20.83
2019-04-03T18:25:51.872Z,20.85
2019-04-03T18:26:51.861Z,20.83
2019-04-03T18:27:51.852Z,20.83
2019-04-03T18:28:51.832Z,20.83
2019-04-03T18:29:51.830Z,20.83
2019-04-03T18:30:51.822Z,20.82
2019-04-03T18:31:51.803Z,20.81
2019-04-03T18:32:51.793Z,20.81
2019-04-03T18:33:51.784Z,20.81
2019-04-03T18:34:54.820Z,20.81
2019-04-03T18:35:51.765Z,20.81
2019-04-03T18:36:51.751Z,20.81
2019-04-03T18:37:51.733Z,20.81
2019-04-03T18:38:51.727Z,20.81
2019-04-03T18:39:51.713Z,20.81
2019-04-03T18:40:51.716Z,20.81
2019-04-03T18:41:51.694Z,20.82
2019-04-03T18:42:51.703Z,20.81
2019-04-03T18:43:54.144Z,20.79
2019-04-03T18:44:51.669Z,20.81
2019-04-03T18:45:51.664Z,20.81
2019-04-03T18:46:51.636Z,20.82
2019-04-03T18:47:51.635Z,20.81
2019-04-03T18:48:53.880Z,20.82
2019-04-03T18:49:51.653Z,20.81
2019-04-03T18:50:51.634Z,20.81
2019-04-03T18:51:51.585Z,20.81
2019-04-03T18:52:51.575Z,20.79
2019-04-03T18:53:51.565Z,20.81
2019-04-03T18:54:51.555Z,20.78
2019-04-03T18:55:51.558Z,20.79
2019-04-03T18:56:51.536Z,20.78
2019-04-03T18:57:51.526Z,20.78
2019-04-03T18:58:53.082Z,20.78
2019-04-03T18:59:51.497Z,20.78
2019-04-03T19:00:51.504Z,20.76
2019-04-03T19:01:51.488Z,20.78
2019-04-03T19:02:51.466Z,20.75
2019-04-03T19:03:51.456Z,20.76
2019-04-03T19:05:01.251Z,20.75
2019-04-03T19:05:52.437Z,20.76
2019-04-03T19:06:51.434Z,20.75
2019-04-03T19:07:51.428Z,20.75
2019-04-03T19:08:51.406Z,20.75
2019-04-03T19:09:51.795Z,20.73
2019-04-03T19:11:01.621Z,20.73
2019-04-03T19:11:52.378Z,20.73
2019-04-03T19:12:51.368Z,20.73
2019-04-03T19:13:51.358Z,20.73
2019-04-03T19:14:51.341Z,20.72
2019-04-03T19:15:51.329Z,20.72
2019-04-03T19:16:52.419Z,20.72
2019-04-03T19:17:59.859Z,20.72
2019-04-03T19:18:52.288Z,20.71
2019-04-03T19:19:51.289Z,20.69
2019-04-03T19:20:51.269Z,20.71
2019-04-03T19:21:52.824Z,20.69
2019-04-03T19:23:02.085Z,20.71
2019-04-03T19:23:54.260Z,20.69
2019-04-03T19:24:51.233Z,20.69
2019-04-03T19:25:51.222Z,20.69
2019-04-03T19:26:51.208Z,20.69
2019-04-03T19:27:51.200Z,20.69
2019-04-03T19:28:51.199Z,20.69
2019-04-03T19:29:51.169Z,20.69
2019-04-03T19:30:51.160Z,20.68
2019-04-03T19:31:51.173Z,20.69
2019-04-03T19:32:51.149Z,20.68
2019-04-03T19:33:51.160Z,20.66
2019-04-03T19:34:52.413Z,20.66
2019-04-03T19:35:51.111Z,20.68
2019-04-03T19:36:51.106Z,20.66
2019-04-03T19:37:51.093Z,20.64
2019-04-03T19:38:53.399Z,20.64
2019-04-03T19:39:51.061Z,20.63
2019-04-03T19:40:51.052Z,20.61
2019-04-03T19:41:51.072Z,20.61
2019-04-03T19:42:51.032Z,20.60
2019-04-03T19:43:51.053Z,20.60
2019-04-03T19:44:51.012Z,20.58
2019-04-03T19:45:51.711Z,20.57
2019-04-03T19:46:51.987Z,20.57
2019-04-03T19:47:51.047Z,20.56
2019-04-03T19:48:50.973Z,20.54
2019-04-03T19:49:50.964Z,20.54
2019-04-03T19:50:50.949Z,20.53
2019-04-03T19:51:50.933Z,20.53
2019-04-03T19:52:50.933Z,20.51
2019-04-03T19:53:59.301Z,20.51
2019-04-03T19:54:52.050Z,20.51
2019-04-03T19:55:50.903Z,20.50
2019-04-03T19:56:50.884Z,20.48
2019-04-03T19:57:50.875Z,20.48
2019-04-03T19:58:50.874Z,20.46
2019-04-03T19:59:50.852Z,20.44
2019-04-03T20:00:50.844Z,20.42
2019-04-03T20:01:50.849Z,20.44
2019-04-03T20:02:50.825Z,20.42
2019-04-03T20:03:50.815Z,20.41
2019-04-03T20:04:50.795Z,20.41
2019-04-03T20:05:50.998Z,20.40
2019-04-03T20:06:50.775Z,20.40
2019-04-03T20:07:50.776Z,20.38
2019-04-03T20:08:50.767Z,20.37
2019-04-03T20:09:50.745Z,20.37
2019-04-03T20:10:50.740Z,20.37
2019-04-03T20:11:53.177Z,20.35
2019-04-03T20:12:50.731Z,20.35
2019-04-03T20:13:50.705Z,20.34
2019-04-03T20:14:58.157Z,20.34
2019-04-03T20:15:53.830Z,20.33
2019-04-03T20:16:50.665Z,20.31
2019-04-03T20:17:50.679Z,20.33
2019-04-03T20:18:50.646Z,20.31
2019-04-03T20:19:50.648Z,20.30
2019-04-03T20:20:50.629Z,20.31
2019-04-03T20:21:50.620Z,20.27
2019-04-03T20:22:50.597Z,20.26
2019-04-03T20:23:50.597Z,20.27
2019-04-03T20:24:59.978Z,20.26
2019-04-03T20:25:51.599Z,20.25
2019-04-03T20:26:50.557Z,20.25
2019-04-03T20:27:52.123Z,20.25
2019-04-03T20:28:50.547Z,20.23
2019-04-03T20:29:50.528Z,20.23
2019-04-03T20:30:50.518Z,20.22
2019-04-03T20:31:50.510Z,20.20
2019-04-03T20:32:50.499Z,20.20
2019-04-03T20:33:50.490Z,20.20
2019-04-03T20:34:50.469Z,20.20
2019-04-03T20:35:50.478Z,20.19
2019-04-03T20:36:54.083Z,20.19
2019-04-03T20:37:50.448Z,20.19
2019-04-03T20:38:50.429Z,20.16
2019-04-03T20:39:50.419Z,20.16
2019-04-03T20:40:50.419Z,20.16
2019-04-03T20:41:50.399Z,20.15
2019-04-03T20:42:50.380Z,20.15
2019-04-03T20:43:50.394Z,20.13
2019-04-03T20:44:50.368Z,20.13
2019-04-03T20:45:50.409Z,20.13
2019-04-03T20:46:50.341Z,20.12
2019-04-03T20:47:50.330Z,20.12
2019-04-03T20:48:50.330Z,20.12
2019-04-03T20:49:50.326Z,20.10
2019-04-03T20:50:50.300Z,20.08
2019-04-03T20:51:50.289Z,20.08
2019-04-03T20:52:50.274Z,20.07
2019-04-03T20:53:50.856Z,20.07
2019-04-03T20:54:52.847Z,20.05
2019-04-03T20:55:50.255Z,20.07
2019-04-03T20:56:57.688Z,20.05
2019-04-03T20:57:55.758Z,20.05
2019-04-03T20:58:56.147Z,20.02
2019-04-03T21:00:01.817Z,20.04
2019-04-03T21:01:05.782Z,20.04
2019-04-03T21:01:51.182Z,20.02
2019-04-03T21:02:50.162Z,20.01
2019-04-03T21:03:50.161Z,20.01
2019-04-03T21:04:50.153Z,20.01
2019-04-03T21:05:50.140Z,20.00
2019-04-03T21:06:51.655Z,20.00
2019-04-03T21:07:50.115Z,19.98
2019-04-03T21:08:50.104Z,19.98
2019-04-03T21:09:50.103Z,19.98
2019-04-03T21:10:50.083Z,19.97
2019-04-03T21:11:50.073Z,19.97
2019-04-03T21:12:50.054Z,19.97
2019-04-03T21:13:50.053Z,19.97
2019-04-03T21:14:50.044Z,19.95
2019-04-03T21:15:52.168Z,19.95
2019-04-03T21:16:50.014Z,19.95
2019-04-03T21:17:50.560Z,19.94
2019-04-03T21:18:51.469Z,19.94
2019-04-03T21:19:52.182Z,19.94
2019-04-03T21:20:49.977Z,19.90
2019-04-03T21:21:49.963Z,19.92
2019-04-03T21:22:49.966Z,19.89
2019-04-03T21:23:49.943Z,19.90
2019-04-03T21:24:49.936Z,19.89
2019-04-03T21:25:49.927Z,19.89
2019-04-03T21:26:49.905Z,19.89
2019-04-03T21:27:49.905Z,19.89
2019-04-03T21:28:49.886Z,19.87
2019-04-03T21:29:50.081Z,19.87
2019-04-03T21:30:49.866Z,19.87
2019-04-03T21:31:49.862Z,19.87
2019-04-03T21:32:49.846Z,19.86
2019-04-03T21:33:49.834Z,19.85
2019-04-03T21:34:49.825Z,19.86
2019-04-03T21:35:49.837Z,19.85
2019-04-03T21:36:49.797Z,19.85
2019-04-03T21:37:49.790Z,19.85
2019-04-03T21:38:49.789Z,19.83
2019-04-03T21:39:49.774Z,19.82
2019-04-03T21:40:49.767Z,19.80
2019-04-03T21:41:49.745Z,19.82
2019-04-03T21:42:49.737Z,19.82
2019-04-03T21:43:49.726Z,19.80
2019-04-03T21:44:49.730Z,19.79
2019-04-03T21:45:49.708Z,19.80
2019-04-03T21:46:49.688Z,19.80
2019-04-03T21:47:49.679Z,19.78
2019-04-03T21:48:49.668Z,19.79
2019-04-03T21:49:49.668Z,19.78
2019-04-03T21:50:50.353Z,19.76
2019-04-03T21:51:49.916Z,19.78
2019-04-03T21:52:49.628Z,19.76
2019-04-03T21:53:49.610Z,19.76
2019-04-03T21:54:49.599Z,19.76
2019-04-03T21:55:49.589Z,19.76
2019-04-03T21:56:49.591Z,19.75
2019-04-03T21:57:49.569Z,19.75
2019-04-03T21:58:49.563Z,19.72
2019-04-03T21:59:49.549Z,19.72
2019-04-03T22:00:49.540Z,19.72
2019-04-03T22:01:49.530Z,19.71
2019-04-03T22:02:49.985Z,19.70
2019-04-03T22:03:51.454Z,19.71
2019-04-03T22:04:49.500Z,19.71
2019-04-03T22:05:49.480Z,19.68
2019-04-03T22:06:49.470Z,19.70
2019-04-03T22:07:49.460Z,19.70
2019-04-03T22:08:51.553Z,19.70
2019-04-03T22:09:49.440Z,19.68
2019-04-03T22:10:50.592Z,19.67
2019-04-03T22:11:49.430Z,19.65
2019-04-03T22:12:49.412Z,19.68
2019-04-03T22:13:49.399Z,19.65
2019-04-03T22:14:49.394Z,19.65
2019-04-03T22:15:49.382Z,19.64
2019-04-03T22:16:50.740Z,19.64
2019-04-03T22:17:52.371Z,19.65
2019-04-03T22:18:49.345Z,19.64
2019-04-03T22:19:49.332Z,19.62
2019-04-03T22:20:49.326Z,19.62
2019-04-03T22:21:49.312Z,19.62
2019-04-03T22:22:49.302Z,19.62
2019-04-03T22:23:49.306Z,19.62
2019-04-03T22:24:49.274Z,19.62
2019-04-03T22:25:49.262Z,19.61
2019-04-03T22:26:49.274Z,19.61
2019-04-03T22:27:49.302Z,19.61
2019-04-03T22:28:49.234Z,19.60
2019-04-03T22:29:50.910Z,19.60
2019-04-03T22:30:52.270Z,19.60
2019-04-03T22:31:49.203Z,19.58
2019-04-03T22:32:49.204Z,19.60
2019-04-03T22:33:49.197Z,19.60
2019-04-03T22:34:49.164Z,19.58
2019-04-03T22:35:49.154Z,19.57
2019-04-03T22:36:49.164Z,19.57
2019-04-03T22:37:49.144Z,19.57
2019-04-03T22:38:49.127Z,19.57
2019-04-03T22:39:49.115Z,19.55
2019-04-03T22:40:49.106Z,19.55
2019-04-03T22:41:49.094Z,19.57
2019-04-03T22:42:49.085Z,19.55
2019-04-03T22:43:49.075Z,19.55
2019-04-03T22:44:49.067Z,19.53
2019-04-03T22:45:50.700Z,19.53
2019-04-03T22:46:49.035Z,19.53
2019-04-03T22:47:49.035Z,19.52
2019-04-03T22:48:49.018Z,19.52
2019-04-03T22:49:49.006Z,19.53
2019-04-03T22:50:48.997Z,19.52
2019-04-03T22:51:48.986Z,19.50
2019-04-03T22:52:48.978Z,19.50
2019-04-03T22:53:48.966Z,19.50
2019-04-03T22:54:48.949Z,19.49
2019-04-03T22:55:48.941Z,19.50
2019-04-03T22:56:48.946Z,19.49
2019-04-03T22:57:50.398Z,19.47
2019-04-03T22:58:48.917Z,19.47
2019-04-03T22:59:48.906Z,19.49
2019-04-03T23:00:48.898Z,19.47
2019-04-03T23:01:48.877Z,19.47
2019-04-03T23:02:48.868Z,19.46
2019-04-03T23:03:49.322Z,19.47
2019-04-03T23:04:48.838Z,19.46
2019-04-03T23:05:48.828Z,19.46
2019-04-03T23:06:49.667Z,19.45
2019-04-03T23:07:51.666Z,19.45
2019-04-03T23:08:48.806Z,19.43
2019-04-03T23:09:48.790Z,19.43
2019-04-03T23:10:48.779Z,19.43
2019-04-03T23:11:48.769Z,19.43
2019-04-03T23:12:48.759Z,19.43
2019-04-03T23:13:48.762Z,19.43
2019-04-03T23:14:48.759Z,19.43
2019-04-03T23:15:48.719Z,19.43
2019-04-03T23:16:48.710Z,19.42
2019-04-03T23:17:48.699Z,19.40
2019-04-03T23:18:48.690Z,19.40
2019-04-03T23:19:49.873Z,19.40
2019-04-03T23:20:48.668Z,19.42
2019-04-03T23:21:48.731Z,19.40
2019-04-03T23:22:48.643Z,19.40
2019-04-03T23:23:48.640Z,19.39
2019-04-03T23:24:48.620Z,19.39
2019-04-03T23:25:48.613Z,19.39
2019-04-03T23:26:48.600Z,19.39
2019-04-03T23:27:48.591Z,19.39
2019-04-03T23:28:48.581Z,19.39
2019-04-03T23:29:48.570Z,19.38
